sensor_id;sensor_type;location;lat;lon;timestamp;P1;durP1;ratioP1;P2;durP2;ratioP2
39190;SDS011;24916;51.676;6.614;2023-04-07T00:01:52;21.73;;;18.52;;
39190;SDS011;24916;51.676;6.614;2023-04-07T00:04:18;22.52;;;17.83;;
39190;SDS011;24916;51.676;6.614;2023-04-07T00:06:43;24.55;;;18.77;;
39190;SDS011;24916;51.676;6.614;2023-04-07T00:09:09;20.73;;;18.15;;
39190;SDS011;24916;51.676;6.614;2023-04-07T00:11:37;25.30;;;18.33;;
39190;SDS011;24916;51.676;6.614;2023-04-07T00:14:02;20.17;;;17.08;;
39190;SDS011;24916;51.676;6.614;2023-04-07T00:16:27;20.77;;;15.68;;
39190;SDS011;24916;51.676;6.614;2023-04-07T00:18:53;19.88;;;16.48;;
39190;SDS011;24916;51.676;6.614;2023-04-07T00:21:18;17.58;;;15.68;;
39190;SDS011;24916;51.676;6.614;2023-04-07T00:23:43;17.73;;;15.85;;
39190;SDS011;24916;51.676;6.614;2023-04-07T00:26:09;20.10;;;15.32;;
39190;SDS011;24916;51.676;6.614;2023-04-07T00:28:34;16.40;;;14.68;;
39190;SDS011;24916;51.676;6.614;2023-04-07T00:30:59;18.42;;;16.02;;
39190;SDS011;24916;51.676;6.614;2023-04-07T00:33:25;18.10;;;15.38;;
39190;SDS011;24916;51.676;6.614;2023-04-07T00:35:50;20.63;;;14.93;;
39190;SDS011;24916;51.676;6.614;2023-04-07T00:38:15;20.17;;;16.13;;
39190;SDS011;24916;51.676;6.614;2023-04-07T00:40:41;17.33;;;15.52;;
39190;SDS011;24916;51.676;6.614;2023-04-07T00:43:06;17.88;;;15.60;;
39190;SDS011;24916;51.676;6.614;2023-04-07T00:45:31;18.73;;;15.40;;
39190;SDS011;24916;51.676;6.614;2023-04-07T00:47:57;24.83;;;16.50;;
39190;SDS011;24916;51.676;6.614;2023-04-07T00:50:22;19.05;;;15.70;;
39190;SDS011;24916;51.676;6.614;2023-04-07T00:52:47;20.98;;;15.77;;
39190;SDS011;24916;51.676;6.614;2023-04-07T00:55:13;19.80;;;16.55;;
39190;SDS011;24916;51.676;6.614;2023-04-07T00:57:38;17.95;;;16.08;;
39190;SDS011;24916;51.676;6.614;2023-04-07T01:00:04;18.65;;;15.60;;
39190;SDS011;24916;51.676;6.614;2023-04-07T01:02:44;19.70;;;16.58;;
39190;SDS011;24916;51.676;6.614;2023-04-07T01:05:14;22.27;;;16.73;;
39190;SDS011;24916;51.676;6.614;2023-04-07T01:13:07;20.27;;;16.40;;
39190;SDS011;24916;51.676;6.614;2023-04-07T01:15:34;30.98;;;17.88;;
39190;SDS011;24916;51.676;6.614;2023-04-07T01:18:18;23.23;;;17.52;;
39190;SDS011;24916;51.676;6.614;2023-04-07T01:20:44;23.10;;;19.20;;
39190;SDS011;24916;51.676;6.614;2023-04-07T01:23:12;27.60;;;18.85;;
39190;SDS011;24916;51.676;6.614;2023-04-07T01:28:13;24.40;;;19.73;;
39190;SDS011;24916;51.676;6.614;2023-04-07T01:30:39;24.30;;;19.30;;
39190;SDS011;24916;51.676;6.614;2023-04-07T01:33:08;23.10;;;19.67;;
39190;SDS011;24916;51.676;6.614;2023-04-07T01:35:35;26.05;;;21.83;;
39190;SDS011;24916;51.676;6.614;2023-04-07T01:38:01;29.50;;;22.52;;
39190;SDS011;24916;51.676;6.614;2023-04-07T01:40:27;33.83;;;23.17;;
39190;SDS011;24916;51.676;6.614;2023-04-07T01:42:53;37.15;;;23.92;;
39190;SDS011;24916;51.676;6.614;2023-04-07T01:45:19;36.25;;;24.85;;
39190;SDS011;24916;51.676;6.614;2023-04-07T01:47:45;39.78;;;25.10;;
39190;SDS011;24916;51.676;6.614;2023-04-07T01:50:10;36.78;;;26.17;;
39190;SDS011;24916;51.676;6.614;2023-04-07T01:52:36;38.85;;;27.98;;
39190;SDS011;24916;51.676;6.614;2023-04-07T01:55:05;42.33;;;28.23;;
39190;SDS011;24916;51.676;6.614;2023-04-07T01:57:31;42.75;;;27.45;;
39190;SDS011;24916;51.676;6.614;2023-04-07T01:59:56;38.78;;;28.25;;
39190;SDS011;24916;51.676;6.614;2023-04-07T02:02:21;45.33;;;30.63;;
39190;SDS011;24916;51.676;6.614;2023-04-07T02:04:48;45.83;;;29.70;;
39190;SDS011;24916;51.676;6.614;2023-04-07T02:07:21;46.97;;;30.10;;
39190;SDS011;24916;51.676;6.614;2023-04-07T02:09:48;46.70;;;31.08;;
39190;SDS011;24916;51.676;6.614;2023-04-07T02:12:15;53.28;;;31.48;;
39190;SDS011;24916;51.676;6.614;2023-04-07T02:14:41;45.53;;;32.47;;
39190;SDS011;24916;51.676;6.614;2023-04-07T02:17:06;50.58;;;31.90;;
39190;SDS011;24916;51.676;6.614;2023-04-07T02:19:32;47.97;;;30.88;;
39190;SDS011;24916;51.676;6.614;2023-04-07T02:22:00;47.75;;;31.30;;
39190;SDS011;24916;51.676;6.614;2023-04-07T02:24:26;51.83;;;33.08;;
39190;SDS011;24916;51.676;6.614;2023-04-07T02:26:51;53.83;;;33.03;;
39190;SDS011;24916;51.676;6.614;2023-04-07T02:29:16;53.13;;;31.88;;
39190;SDS011;24916;51.676;6.614;2023-04-07T02:31:41;51.67;;;32.35;;
39190;SDS011;24916;51.676;6.614;2023-04-07T02:34:06;54.22;;;32.35;;
39190;SDS011;24916;51.676;6.614;2023-04-07T02:36:32;49.70;;;31.98;;
39190;SDS011;24916;51.676;6.614;2023-04-07T02:38:57;56.13;;;32.10;;
39190;SDS011;24916;51.676;6.614;2023-04-07T02:41:22;62.85;;;30.42;;
39190;SDS011;24916;51.676;6.614;2023-04-07T02:43:48;58.72;;;28.58;;
39190;SDS011;24916;51.676;6.614;2023-04-07T02:46:13;59.42;;;29.13;;
39190;SDS011;24916;51.676;6.614;2023-04-07T02:48:38;54.92;;;28.05;;
39190;SDS011;24916;51.676;6.614;2023-04-07T02:51:03;51.70;;;28.42;;
39190;SDS011;24916;51.676;6.614;2023-04-07T02:53:29;50.95;;;27.80;;
39190;SDS011;24916;51.676;6.614;2023-04-07T02:55:54;52.40;;;27.90;;
39190;SDS011;24916;51.676;6.614;2023-04-07T02:58:19;52.13;;;29.30;;
39190;SDS011;24916;51.676;6.614;2023-04-07T03:00:45;51.25;;;27.80;;
39190;SDS011;24916;51.676;6.614;2023-04-07T03:03:11;49.92;;;28.00;;
39190;SDS011;24916;51.676;6.614;2023-04-07T03:05:37;52.03;;;28.27;;
39190;SDS011;24916;51.676;6.614;2023-04-07T03:08:02;53.13;;;28.73;;
39190;SDS011;24916;51.676;6.614;2023-04-07T03:10:27;51.55;;;28.02;;
39190;SDS011;24916;51.676;6.614;2023-04-07T03:12:52;55.13;;;27.80;;
39190;SDS011;24916;51.676;6.614;2023-04-07T03:15:17;50.97;;;26.47;;
39190;SDS011;24916;51.676;6.614;2023-04-07T03:17:43;54.95;;;28.23;;
39190;SDS011;24916;51.676;6.614;2023-04-07T03:20:08;52.67;;;27.60;;
39190;SDS011;24916;51.676;6.614;2023-04-07T03:22:33;59.30;;;27.92;;
39190;SDS011;24916;51.676;6.614;2023-04-07T03:24:58;47.63;;;26.03;;
39190;SDS011;24916;51.676;6.614;2023-04-07T03:27:23;44.78;;;24.50;;
39190;SDS011;24916;51.676;6.614;2023-04-07T03:29:49;46.80;;;24.45;;
39190;SDS011;24916;51.676;6.614;2023-04-07T03:32:15;38.58;;;22.27;;
39190;SDS011;24916;51.676;6.614;2023-04-07T03:34:40;43.97;;;23.60;;
39190;SDS011;24916;51.676;6.614;2023-04-07T03:37:05;37.23;;;21.70;;
39190;SDS011;24916;51.676;6.614;2023-04-07T03:39:30;42.10;;;21.73;;
39190;SDS011;24916;51.676;6.614;2023-04-07T03:41:56;35.15;;;20.23;;
39190;SDS011;24916;51.676;6.614;2023-04-07T03:44:21;35.88;;;19.02;;
39190;SDS011;24916;51.676;6.614;2023-04-07T03:46:47;29.52;;;19.17;;
39190;SDS011;24916;51.676;6.614;2023-04-07T03:49:14;29.23;;;19.05;;
39190;SDS011;24916;51.676;6.614;2023-04-07T03:51:40;35.28;;;20.05;;
39190;SDS011;24916;51.676;6.614;2023-04-07T03:54:05;30.45;;;18.52;;
39190;SDS011;24916;51.676;6.614;2023-04-07T03:56:30;28.80;;;19.17;;
39190;SDS011;24916;51.676;6.614;2023-04-07T03:58:56;25.92;;;17.17;;
39190;SDS011;24916;51.676;6.614;2023-04-07T04:01:21;28.73;;;16.52;;
39190;SDS011;24916;51.676;6.614;2023-04-07T04:03:47;32.10;;;16.98;;
39190;SDS011;24916;51.676;6.614;2023-04-07T04:06:13;27.65;;;15.40;;
39190;SDS011;24916;51.676;6.614;2023-04-07T04:08:38;23.17;;;14.15;;
39190;SDS011;24916;51.676;6.614;2023-04-07T04:11:03;21.77;;;12.23;;
39190;SDS011;24916;51.676;6.614;2023-04-07T04:13:28;19.67;;;13.05;;
39190;SDS011;24916;51.676;6.614;2023-04-07T04:15:54;20.02;;;12.65;;
39190;SDS011;24916;51.676;6.614;2023-04-07T04:18:19;21.77;;;12.75;;
39190;SDS011;24916;51.676;6.614;2023-04-07T04:20:45;17.45;;;10.70;;
39190;SDS011;24916;51.676;6.614;2023-04-07T04:23:10;15.00;;;9.82;;
39190;SDS011;24916;51.676;6.614;2023-04-07T04:25:35;19.10;;;9.95;;
39190;SDS011;24916;51.676;6.614;2023-04-07T04:28:03;13.52;;;8.88;;
39190;SDS011;24916;51.676;6.614;2023-04-07T04:30:28;15.60;;;9.70;;
39190;SDS011;24916;51.676;6.614;2023-04-07T04:32:53;13.27;;;7.85;;
39190;SDS011;24916;51.676;6.614;2023-04-07T04:35:19;12.45;;;7.65;;
39190;SDS011;24916;51.676;6.614;2023-04-07T04:37:44;13.07;;;8.20;;
39190;SDS011;24916;51.676;6.614;2023-04-07T04:40:10;13.98;;;8.43;;
39190;SDS011;24916;51.676;6.614;2023-04-07T04:42:35;11.35;;;7.95;;
39190;SDS011;24916;51.676;6.614;2023-04-07T04:45:00;12.23;;;8.15;;
39190;SDS011;24916;51.676;6.614;2023-04-07T04:47:26;15.82;;;8.48;;
39190;SDS011;24916;51.676;6.614;2023-04-07T04:49:51;13.90;;;7.55;;
39190;SDS011;24916;51.676;6.614;2023-04-07T04:52:16;14.13;;;7.68;;
39190;SDS011;24916;51.676;6.614;2023-04-07T04:54:41;13.20;;;7.82;;
39190;SDS011;24916;51.676;6.614;2023-04-07T04:57:07;12.75;;;8.30;;
39190;SDS011;24916;51.676;6.614;2023-04-07T04:59:32;13.52;;;7.53;;
39190;SDS011;24916;51.676;6.614;2023-04-07T05:01:57;12.23;;;7.63;;
39190;SDS011;24916;51.676;6.614;2023-04-07T05:04:23;12.02;;;7.57;;
39190;SDS011;24916;51.676;6.614;2023-04-07T05:06:48;12.68;;;8.43;;
39190;SDS011;24916;51.676;6.614;2023-04-07T05:09:13;11.32;;;7.90;;
39190;SDS011;24916;51.676;6.614;2023-04-07T05:11:39;15.93;;;9.10;;
39190;SDS011;24916;51.676;6.614;2023-04-07T05:14:04;13.73;;;8.50;;
39190;SDS011;24916;51.676;6.614;2023-04-07T05:16:30;19.55;;;8.23;;
39190;SDS011;24916;51.676;6.614;2023-04-07T05:18:55;12.80;;;9.07;;
39190;SDS011;24916;51.676;6.614;2023-04-07T05:21:20;13.30;;;8.65;;
39190;SDS011;24916;51.676;6.614;2023-04-07T05:23:46;14.88;;;8.55;;
39190;SDS011;24916;51.676;6.614;2023-04-07T05:26:11;16.35;;;8.50;;
39190;SDS011;24916;51.676;6.614;2023-04-07T05:28:36;14.82;;;8.95;;
39190;SDS011;24916;51.676;6.614;2023-04-07T05:31:01;14.60;;;8.63;;
39190;SDS011;24916;51.676;6.614;2023-04-07T05:33:26;15.32;;;9.45;;
39190;SDS011;24916;51.676;6.614;2023-04-07T05:35:52;13.55;;;9.63;;
39190;SDS011;24916;51.676;6.614;2023-04-07T05:38:17;17.20;;;9.63;;
39190;SDS011;24916;51.676;6.614;2023-04-07T05:40:42;17.17;;;10.02;;
39190;SDS011;24916;51.676;6.614;2023-04-07T05:43:07;20.58;;;9.98;;
39190;SDS011;24916;51.676;6.614;2023-04-07T05:45:33;17.40;;;9.57;;
39190;SDS011;24916;51.676;6.614;2023-04-07T05:47:58;13.02;;;9.82;;
39190;SDS011;24916;51.676;6.614;2023-04-07T05:50:23;19.35;;;10.48;;
39190;SDS011;24916;51.676;6.614;2023-04-07T05:52:48;17.92;;;10.38;;
39190;SDS011;24916;51.676;6.614;2023-04-07T05:55:13;21.25;;;12.02;;
39190;SDS011;24916;51.676;6.614;2023-04-07T05:57:39;19.05;;;11.52;;
39190;SDS011;24916;51.676;6.614;2023-04-07T06:00:04;22.48;;;11.40;;
39190;SDS011;24916;51.676;6.614;2023-04-07T06:02:30;15.65;;;10.65;;
39190;SDS011;24916;51.676;6.614;2023-04-07T06:04:55;22.58;;;11.05;;
39190;SDS011;24916;51.676;6.614;2023-04-07T06:07:20;18.50;;;11.02;;
39190;SDS011;24916;51.676;6.614;2023-04-07T06:09:45;20.63;;;11.07;;
39190;SDS011;24916;51.676;6.614;2023-04-07T06:12:11;17.45;;;11.35;;
39190;SDS011;24916;51.676;6.614;2023-04-07T06:14:36;19.38;;;11.23;;
39190;SDS011;24916;51.676;6.614;2023-04-07T06:17:02;21.23;;;12.05;;
39190;SDS011;24916;51.676;6.614;2023-04-07T06:19:27;27.92;;;13.57;;
39190;SDS011;24916;51.676;6.614;2023-04-07T06:21:52;22.60;;;12.82;;
39190;SDS011;24916;51.676;6.614;2023-04-07T06:24:17;27.30;;;13.82;;
39190;SDS011;24916;51.676;6.614;2023-04-07T06:26:43;23.38;;;13.65;;
39190;SDS011;24916;51.676;6.614;2023-04-07T06:29:08;27.77;;;13.13;;
39190;SDS011;24916;51.676;6.614;2023-04-07T06:31:33;26.20;;;14.05;;
39190;SDS011;24916;51.676;6.614;2023-04-07T06:33:58;22.50;;;13.45;;
39190;SDS011;24916;51.676;6.614;2023-04-07T06:36:24;23.27;;;13.38;;
39190;SDS011;24916;51.676;6.614;2023-04-07T06:38:49;36.08;;;14.57;;
39190;SDS011;24916;51.676;6.614;2023-04-07T06:41:14;32.17;;;14.40;;
39190;SDS011;24916;51.676;6.614;2023-04-07T06:43:43;24.17;;;13.27;;
39190;SDS011;24916;51.676;6.614;2023-04-07T06:46:08;25.88;;;13.75;;
39190;SDS011;24916;51.676;6.614;2023-04-07T06:48:34;28.80;;;13.85;;
39190;SDS011;24916;51.676;6.614;2023-04-07T06:50:59;23.80;;;13.45;;
39190;SDS011;24916;51.676;6.614;2023-04-07T06:53:24;21.67;;;13.95;;
39190;SDS011;24916;51.676;6.614;2023-04-07T06:55:49;21.58;;;13.55;;
39190;SDS011;24916;51.676;6.614;2023-04-07T06:58:15;25.98;;;14.30;;
39190;SDS011;24916;51.676;6.614;2023-04-07T07:00:40;22.63;;;12.88;;
39190;SDS011;24916;51.676;6.614;2023-04-07T07:03:05;22.48;;;12.65;;
39190;SDS011;24916;51.676;6.614;2023-04-07T07:05:30;23.08;;;13.70;;
39190;SDS011;24916;51.676;6.614;2023-04-07T07:07:56;20.00;;;12.50;;
39190;SDS011;24916;51.676;6.614;2023-04-07T07:10:21;25.83;;;12.30;;
39190;SDS011;24916;51.676;6.614;2023-04-07T07:12:46;17.73;;;11.02;;
39190;SDS011;24916;51.676;6.614;2023-04-07T07:15:12;17.40;;;10.85;;
39190;SDS011;24916;51.676;6.614;2023-04-07T07:17:37;20.52;;;10.85;;
39190;SDS011;24916;51.676;6.614;2023-04-07T07:20:02;19.77;;;10.65;;
39190;SDS011;24916;51.676;6.614;2023-04-07T07:22:27;21.85;;;11.23;;
39190;SDS011;24916;51.676;6.614;2023-04-07T07:24:53;21.65;;;11.82;;
39190;SDS011;24916;51.676;6.614;2023-04-07T07:27:18;19.30;;;9.65;;
39190;SDS011;24916;51.676;6.614;2023-04-07T07:29:43;17.25;;;10.20;;
39190;SDS011;24916;51.676;6.614;2023-04-07T07:32:08;19.85;;;11.25;;
39190;SDS011;24916;51.676;6.614;2023-04-07T07:34:34;18.88;;;10.95;;
39190;SDS011;24916;51.676;6.614;2023-04-07T07:36:59;24.30;;;9.00;;
39190;SDS011;24916;51.676;6.614;2023-04-07T07:39:25;15.38;;;9.57;;
39190;SDS011;24916;51.676;6.614;2023-04-07T07:41:50;12.57;;;8.75;;
39190;SDS011;24916;51.676;6.614;2023-04-07T07:44:16;14.45;;;9.75;;
39190;SDS011;24916;51.676;6.614;2023-04-07T07:46:41;16.08;;;8.85;;
39190;SDS011;24916;51.676;6.614;2023-04-07T07:49:06;13.68;;;8.38;;
39190;SDS011;24916;51.676;6.614;2023-04-07T07:51:32;16.30;;;9.50;;
39190;SDS011;24916;51.676;6.614;2023-04-07T07:53:57;19.95;;;9.45;;
39190;SDS011;24916;51.676;6.614;2023-04-07T07:56:22;17.60;;;10.75;;
39190;SDS011;24916;51.676;6.614;2023-04-07T07:58:47;20.20;;;11.63;;
39190;SDS011;24916;51.676;6.614;2023-04-07T08:01:13;16.75;;;10.10;;
39190;SDS011;24916;51.676;6.614;2023-04-07T08:03:38;17.27;;;10.23;;
39190;SDS011;24916;51.676;6.614;2023-04-07T08:06:03;15.82;;;10.55;;
39190;SDS011;24916;51.676;6.614;2023-04-07T08:08:29;19.65;;;11.65;;
39190;SDS011;24916;51.676;6.614;2023-04-07T08:10:54;20.00;;;11.68;;
39190;SDS011;24916;51.676;6.614;2023-04-07T08:13:19;19.27;;;10.90;;
39190;SDS011;24916;51.676;6.614;2023-04-07T08:15:45;21.25;;;10.93;;
39190;SDS011;24916;51.676;6.614;2023-04-07T08:18:10;14.23;;;10.85;;
39190;SDS011;24916;51.676;6.614;2023-04-07T08:20:35;18.55;;;10.63;;
39190;SDS011;24916;51.676;6.614;2023-04-07T08:23:00;20.73;;;11.95;;
39190;SDS011;24916;51.676;6.614;2023-04-07T08:25:26;18.30;;;11.15;;
39190;SDS011;24916;51.676;6.614;2023-04-07T08:27:52;21.25;;;11.75;;
39190;SDS011;24916;51.676;6.614;2023-04-07T08:30:17;21.13;;;12.97;;
39190;SDS011;24916;51.676;6.614;2023-04-07T08:32:43;25.00;;;12.52;;
39190;SDS011;24916;51.676;6.614;2023-04-07T08:35:08;23.38;;;12.43;;
39190;SDS011;24916;51.676;6.614;2023-04-07T08:37:34;26.73;;;13.57;;
39190;SDS011;24916;51.676;6.614;2023-04-07T08:40:00;23.65;;;16.25;;
39190;SDS011;24916;51.676;6.614;2023-04-07T08:42:29;16.23;;;12.50;;
39190;SDS011;24916;51.676;6.614;2023-04-07T08:44:55;17.77;;;12.77;;
39190;SDS011;24916;51.676;6.614;2023-04-07T08:47:20;14.02;;;10.73;;
39190;SDS011;24916;51.676;6.614;2023-04-07T08:49:46;19.13;;;11.73;;
39190;SDS011;24916;51.676;6.614;2023-04-07T08:52:14;22.55;;;11.63;;
39190;SDS011;24916;51.676;6.614;2023-04-07T08:54:42;21.98;;;12.20;;
39190;SDS011;24916;51.676;6.614;2023-04-07T08:57:07;19.77;;;12.25;;
39190;SDS011;24916;51.676;6.614;2023-04-07T08:59:33;19.77;;;12.57;;
39190;SDS011;24916;51.676;6.614;2023-04-07T09:01:59;20.05;;;13.27;;
39190;SDS011;24916;51.676;6.614;2023-04-07T09:04:24;24.33;;;12.23;;
39190;SDS011;24916;51.676;6.614;2023-04-07T09:06:51;26.27;;;13.10;;
39190;SDS011;24916;51.676;6.614;2023-04-07T09:09:17;15.75;;;11.88;;
39190;SDS011;24916;51.676;6.614;2023-04-07T09:11:42;21.98;;;12.85;;
39190;SDS011;24916;51.676;6.614;2023-04-07T09:14:07;25.60;;;16.08;;
39190;SDS011;24916;51.676;6.614;2023-04-07T09:16:32;20.55;;;12.80;;
39190;SDS011;24916;51.676;6.614;2023-04-07T09:18:58;22.73;;;12.77;;
39190;SDS011;24916;51.676;6.614;2023-04-07T09:21:23;25.90;;;13.77;;
39190;SDS011;24916;51.676;6.614;2023-04-07T09:23:48;25.23;;;13.68;;
39190;SDS011;24916;51.676;6.614;2023-04-07T09:28:43;20.20;;;11.80;;
39190;SDS011;24916;51.676;6.614;2023-04-07T09:31:09;25.85;;;10.95;;
39190;SDS011;24916;51.676;6.614;2023-04-07T09:33:34;18.38;;;11.85;;
39190;SDS011;24916;51.676;6.614;2023-04-07T09:36:00;18.33;;;12.02;;
39190;SDS011;24916;51.676;6.614;2023-04-07T09:38:32;18.50;;;10.20;;
39190;SDS011;24916;51.676;6.614;2023-04-07T09:41:04;19.02;;;10.60;;
39190;SDS011;24916;51.676;6.614;2023-04-07T09:43:31;21.60;;;10.00;;
39190;SDS011;24916;51.676;6.614;2023-04-07T09:48:59;20.20;;;13.60;;
39190;SDS011;24916;51.676;6.614;2023-04-07T09:51:25;24.20;;;12.20;;
39190;SDS011;24916;51.676;6.614;2023-04-07T09:53:51;15.43;;;9.50;;
39190;SDS011;24916;51.676;6.614;2023-04-07T09:56:20;15.30;;;9.10;;
39190;SDS011;24916;51.676;6.614;2023-04-07T09:58:49;19.80;;;9.80;;
39190;SDS011;24916;51.676;6.614;2023-04-07T10:01:17;13.00;;;8.82;;
39190;SDS011;24916;51.676;6.614;2023-04-07T10:03:43;10.25;;;7.38;;
39190;SDS011;24916;51.676;6.614;2023-04-07T10:06:08;12.07;;;8.18;;
39190;SDS011;24916;51.676;6.614;2023-04-07T10:08:36;15.27;;;7.88;;
39190;SDS011;24916;51.676;6.614;2023-04-07T10:11:07;14.73;;;7.90;;
39190;SDS011;24916;51.676;6.614;2023-04-07T10:13:33;14.10;;;7.38;;
39190;SDS011;24916;51.676;6.614;2023-04-07T10:15:59;16.85;;;7.47;;
39190;SDS011;24916;51.676;6.614;2023-04-07T10:18:27;16.70;;;8.35;;
39190;SDS011;24916;51.676;6.614;2023-04-07T10:20:54;16.23;;;7.80;;
39190;SDS011;24916;51.676;6.614;2023-04-07T10:26:05;14.18;;;8.55;;
39190;SDS011;24916;51.676;6.614;2023-04-07T10:28:31;21.13;;;13.73;;
39190;SDS011;24916;51.676;6.614;2023-04-07T10:30:57;10.93;;;8.07;;
39190;SDS011;24916;51.676;6.614;2023-04-07T10:36:07;9.85;;;7.57;;
39190;SDS011;24916;51.676;6.614;2023-04-07T10:38:32;11.35;;;7.20;;
39190;SDS011;24916;51.676;6.614;2023-04-07T10:40:58;11.02;;;6.72;;
39190;SDS011;24916;51.676;6.614;2023-04-07T10:43:36;8.98;;;6.65;;
39190;SDS011;24916;51.676;6.614;2023-04-07T10:46:01;10.25;;;5.88;;
39190;SDS011;24916;51.676;6.614;2023-04-07T10:48:27;9.38;;;5.55;;
39190;SDS011;24916;51.676;6.614;2023-04-07T10:53:30;10.40;;;5.13;;
39190;SDS011;24916;51.676;6.614;2023-04-07T10:55:55;6.82;;;4.78;;
39190;SDS011;24916;51.676;6.614;2023-04-07T11:03:21;9.25;;;5.40;;
39190;SDS011;24916;51.676;6.614;2023-04-07T11:05:46;8.20;;;4.60;;
39190;SDS011;24916;51.676;6.614;2023-04-07T11:08:11;5.43;;;3.88;;
39190;SDS011;24916;51.676;6.614;2023-04-07T11:10:37;11.00;;;4.50;;
39190;SDS011;24916;51.676;6.614;2023-04-07T11:13:04;7.65;;;4.75;;
39190;SDS011;24916;51.676;6.614;2023-04-07T11:15:29;9.75;;;5.57;;
39190;SDS011;24916;51.676;6.614;2023-04-07T11:23:11;9.13;;;4.32;;
39190;SDS011;24916;51.676;6.614;2023-04-07T11:25:36;7.75;;;5.32;;
39190;SDS011;24916;51.676;6.614;2023-04-07T11:28:02;7.20;;;5.32;;
39190;SDS011;24916;51.676;6.614;2023-04-07T11:30:27;8.50;;;5.90;;
39190;SDS011;24916;51.676;6.614;2023-04-07T11:32:53;8.95;;;5.70;;
39190;SDS011;24916;51.676;6.614;2023-04-07T11:35:18;13.02;;;5.75;;
39190;SDS011;24916;51.676;6.614;2023-04-07T11:37:43;10.13;;;4.97;;
39190;SDS011;24916;51.676;6.614;2023-04-07T11:40:09;6.32;;;4.85;;
39190;SDS011;24916;51.676;6.614;2023-04-07T11:42:38;10.30;;;5.95;;
39190;SDS011;24916;51.676;6.614;2023-04-07T11:45:04;11.77;;;5.85;;
39190;SDS011;24916;51.676;6.614;2023-04-07T11:47:33;8.88;;;5.53;;
39190;SDS011;24916;51.676;6.614;2023-04-07T11:49:59;14.77;;;5.35;;
39190;SDS011;24916;51.676;6.614;2023-04-07T11:52:25;7.70;;;5.20;;
39190;SDS011;24916;51.676;6.614;2023-04-07T11:54:50;9.05;;;5.32;;
39190;SDS011;24916;51.676;6.614;2023-04-07T11:57:28;8.35;;;5.53;;
39190;SDS011;24916;51.676;6.614;2023-04-07T12:00:09;5.15;;;4.28;;
39190;SDS011;24916;51.676;6.614;2023-04-07T12:02:35;7.50;;;4.50;;
39190;SDS011;24916;51.676;6.614;2023-04-07T12:05:01;9.85;;;5.18;;
39190;SDS011;24916;51.676;6.614;2023-04-07T12:07:26;8.40;;;5.28;;
39190;SDS011;24916;51.676;6.614;2023-04-07T12:09:52;8.23;;;5.68;;
39190;SDS011;24916;51.676;6.614;2023-04-07T12:12:24;6.35;;;4.43;;
39190;SDS011;24916;51.676;6.614;2023-04-07T12:14:49;8.02;;;5.65;;
39190;SDS011;24916;51.676;6.614;2023-04-07T12:19:46;10.30;;;5.43;;
39190;SDS011;24916;51.676;6.614;2023-04-07T12:22:11;8.82;;;4.68;;
39190;SDS011;24916;51.676;6.614;2023-04-07T12:24:36;7.40;;;5.18;;
39190;SDS011;24916;51.676;6.614;2023-04-07T12:27:03;6.32;;;5.32;;
39190;SDS011;24916;51.676;6.614;2023-04-07T12:29:28;7.93;;;5.60;;
39190;SDS011;24916;51.676;6.614;2023-04-07T12:31:54;7.43;;;4.90;;
39190;SDS011;24916;51.676;6.614;2023-04-07T12:34:20;8.10;;;5.25;;
39190;SDS011;24916;51.676;6.614;2023-04-07T12:36:45;6.82;;;4.15;;
39190;SDS011;24916;51.676;6.614;2023-04-07T12:39:10;6.20;;;4.30;;
39190;SDS011;24916;51.676;6.614;2023-04-07T12:41:36;7.35;;;4.78;;
39190;SDS011;24916;51.676;6.614;2023-04-07T12:44:02;6.10;;;4.47;;
39190;SDS011;24916;51.676;6.614;2023-04-07T12:46:27;8.95;;;5.18;;
39190;SDS011;24916;51.676;6.614;2023-04-07T12:48:53;7.27;;;4.50;;
39190;SDS011;24916;51.676;6.614;2023-04-07T12:51:18;6.75;;;4.32;;
39190;SDS011;24916;51.676;6.614;2023-04-07T12:53:43;9.32;;;4.47;;
39190;SDS011;24916;51.676;6.614;2023-04-07T12:56:09;11.38;;;5.75;;
39190;SDS011;24916;51.676;6.614;2023-04-07T12:58:34;8.68;;;5.40;;
39190;SDS011;24916;51.676;6.614;2023-04-07T13:01:00;10.02;;;6.78;;
39190;SDS011;24916;51.676;6.614;2023-04-07T13:03:25;8.80;;;5.60;;
39190;SDS011;24916;51.676;6.614;2023-04-07T13:05:50;10.35;;;5.93;;
39190;SDS011;24916;51.676;6.614;2023-04-07T13:08:18;11.27;;;5.90;;
39190;SDS011;24916;51.676;6.614;2023-04-07T13:10:43;7.95;;;5.20;;
39190;SDS011;24916;51.676;6.614;2023-04-07T13:13:08;6.78;;;4.72;;
39190;SDS011;24916;51.676;6.614;2023-04-07T13:15:34;7.60;;;4.53;;
39190;SDS011;24916;51.676;6.614;2023-04-07T13:18:00;5.57;;;4.43;;
39190;SDS011;24916;51.676;6.614;2023-04-07T13:20:25;5.18;;;4.05;;
39190;SDS011;24916;51.676;6.614;2023-04-07T13:22:52;5.82;;;4.20;;
39190;SDS011;24916;51.676;6.614;2023-04-07T13:25:17;6.28;;;4.32;;
39190;SDS011;24916;51.676;6.614;2023-04-07T13:27:42;7.45;;;4.63;;
39190;SDS011;24916;51.676;6.614;2023-04-07T13:30:08;9.80;;;5.03;;
39190;SDS011;24916;51.676;6.614;2023-04-07T13:32:33;6.40;;;4.97;;
39190;SDS011;24916;51.676;6.614;2023-04-07T13:34:58;12.25;;;5.80;;
39190;SDS011;24916;51.676;6.614;2023-04-07T13:37:24;14.02;;;6.70;;
39190;SDS011;24916;51.676;6.614;2023-04-07T13:39:49;11.73;;;6.25;;
39190;SDS011;24916;51.676;6.614;2023-04-07T13:42:14;13.75;;;7.50;;
39190;SDS011;24916;51.676;6.614;2023-04-07T13:44:44;18.45;;;7.70;;
39190;SDS011;24916;51.676;6.614;2023-04-07T13:47:11;15.32;;;8.35;;
39190;SDS011;24916;51.676;6.614;2023-04-07T13:49:38;13.98;;;7.40;;
39190;SDS011;24916;51.676;6.614;2023-04-07T13:52:04;16.95;;;10.30;;
39190;SDS011;24916;51.676;6.614;2023-04-07T13:54:29;16.00;;;9.40;;
39190;SDS011;24916;51.676;6.614;2023-04-07T13:56:55;23.35;;;10.82;;
39190;SDS011;24916;51.676;6.614;2023-04-07T13:59:20;21.30;;;11.50;;
39190;SDS011;24916;51.676;6.614;2023-04-07T14:01:45;20.30;;;11.82;;
39190;SDS011;24916;51.676;6.614;2023-04-07T14:04:10;21.63;;;13.45;;
39190;SDS011;24916;51.676;6.614;2023-04-07T14:06:36;18.02;;;12.75;;
39190;SDS011;24916;51.676;6.614;2023-04-07T14:09:02;20.63;;;10.73;;
39190;SDS011;24916;51.676;6.614;2023-04-07T14:11:27;15.02;;;8.70;;
39190;SDS011;24916;51.676;6.614;2023-04-07T14:13:53;9.25;;;7.45;;
39190;SDS011;24916;51.676;6.614;2023-04-07T14:16:20;10.20;;;6.80;;
39190;SDS011;24916;51.676;6.614;2023-04-07T14:18:45;10.52;;;7.68;;
39190;SDS011;24916;51.676;6.614;2023-04-07T14:21:13;9.52;;;6.93;;
39190;SDS011;24916;51.676;6.614;2023-04-07T14:23:39;11.93;;;7.35;;
39190;SDS011;24916;51.676;6.614;2023-04-07T14:26:04;11.40;;;7.40;;
39190;SDS011;24916;51.676;6.614;2023-04-07T14:28:29;14.38;;;8.18;;
39190;SDS011;24916;51.676;6.614;2023-04-07T14:30:54;12.23;;;8.03;;
39190;SDS011;24916;51.676;6.614;2023-04-07T14:33:20;16.75;;;7.70;;
39190;SDS011;24916;51.676;6.614;2023-04-07T14:35:46;12.60;;;7.43;;
39190;SDS011;24916;51.676;6.614;2023-04-07T14:38:11;8.52;;;7.63;;
39190;SDS011;24916;51.676;6.614;2023-04-07T14:40:36;10.52;;;8.07;;
39190;SDS011;24916;51.676;6.614;2023-04-07T14:43:02;14.52;;;7.85;;
39190;SDS011;24916;51.676;6.614;2023-04-07T14:45:28;8.95;;;7.00;;
39190;SDS011;24916;51.676;6.614;2023-04-07T14:47:53;11.88;;;7.88;;
39190;SDS011;24916;51.676;6.614;2023-04-07T14:50:18;10.13;;;7.55;;
39190;SDS011;24916;51.676;6.614;2023-04-07T14:52:44;16.13;;;7.57;;
39190;SDS011;24916;51.676;6.614;2023-04-07T14:55:09;14.95;;;8.38;;